Terminal Aerodrome Forecast
Issued by NWS Kansas City/Pleasant Hill, MO

Home | Current Version | Previous Version | Text Only | Print | Product List | Glossary On
Versions: 1 2 3 4 5 6 7 8 9 10 11 12 13 14 15 16 17 18 19 20 21 22 23 24 25 26
433
FTUS43 KEAX 170521
TAFMCI
TAF
KMCI 170521Z 1706/1806 28009KT P6SM OVC004
      TEMPO 1706/1710 3SM -DZ BR OVC006
     FM171000 30007KT P6SM OVC007
     FM171700 29008KT P6SM BKN010
     FM172100 29007KT P6SM BKN025
     FM180000 VRB04KT P6SM SCT025=

USA.gov is the U.S. government's official web portal to all federal, state and local government web resources and services.